Time;durP1;ratioP1;P1;durP2;ratioP2;P2;SDS_P1;SDS_P2;PMS_P1;PMS_P2;Temp;Humidity;BMP_temperature;BMP_pressure;BME280_temperature;BME280_humidity;BME280_pressure;Samples;Min_cycle;Max_cycle;Signal;HPM_P1;HPM_P2
2023/03/11 00:01:40;;;;;;;29.98;9.27;;;;;;;;;;4175649;28;20091;-57
2023/03/11 00:04:00;;;;;;;28.15;8.85;;;;;;;;;;4176386;28;20240;-57
2023/03/11 00:06:20;;;;;;;35.03;8.50;;;;;;;;;;4170524;28;20288;-57
2023/03/11 00:08:40;;;;;;;37.17;9.80;;;;;;;;;;4177900;28;20092;-58
2023/03/11 00:11:01;;;;;;;34.88;9.30;;;;;;;;;;4174230;28;20225;-57
2023/03/11 00:13:21;;;;;;;33.08;8.95;;;;;;;;;;4172704;28;20082;-57
2023/03/11 00:15:42;;;;;;;35.67;10.50;;;;;;;;;;4170302;28;20048;-57
2023/03/11 00:18:03;;;;;;;24.67;8.48;;;;;;;;;;4175927;28;20296;-57
2023/03/11 00:20:27;;;;;;;28.88;8.15;;;;;;;;;;4176893;28;20382;-57
2023/03/11 00:22:49;;;;;;;24.77;8.18;;;;;;;;;;4168502;28;20045;-57
2023/03/11 00:25:11;;;;;;;28.93;7.83;;;;;;;;;;4164158;28;20340;-57
2023/03/11 00:27:31;;;;;;;26.08;8.18;;;;;;;;;;4175204;28;20274;-57
2023/03/11 00:29:51;;;;;;;26.20;7.75;;;;;;;;;;4177393;28;20040;-57
2023/03/11 00:32:11;;;;;;;32.42;7.97;;;;;;;;;;4182480;28;20112;-57
2023/03/11 00:34:32;;;;;;;30.73;8.00;;;;;;;;;;4169257;28;20037;-57
2023/03/11 00:36:52;;;;;;;25.23;7.53;;;;;;;;;;4174959;28;20056;-58
2023/03/11 00:39:12;;;;;;;22.42;7.60;;;;;;;;;;4178467;28;20087;-57
2023/03/11 00:41:33;;;;;;;25.27;8.45;;;;;;;;;;4175172;28;20363;-57
2023/03/11 00:43:53;;;;;;;27.10;7.55;;;;;;;;;;4171060;28;20047;-58
2023/03/11 00:46:13;;;;;;;29.17;7.72;;;;;;;;;;4176238;28;20052;-57
2023/03/11 00:48:34;;;;;;;29.50;7.97;;;;;;;;;;4176959;28;20044;-57
2023/03/11 00:50:54;;;;;;;33.20;9.07;;;;;;;;;;4171439;28;20051;-57
2023/03/11 00:53:14;;;;;;;29.17;5.97;;;;;;;;;;4174631;28;20048;-57
2023/03/11 00:55:35;;;;;;;25.25;6.60;;;;;;;;;;4178262;28;20064;-57
2023/03/11 00:57:57;;;;;;;29.17;7.43;;;;;;;;;;4173300;28;20056;-57
2023/03/11 01:00:18;;;;;;;26.13;7.28;;;;;;;;;;4176783;28;20040;-58
2023/03/11 01:02:38;;;;;;;37.50;6.80;;;;;;;;;;4181274;28;20068;-57
2023/03/11 01:04:58;;;;;;;29.63;7.47;;;;;;;;;;4180423;28;20072;-57
2023/03/11 01:07:19;;;;;;;29.95;7.80;;;;;;;;;;4170253;28;20251;-57
2023/03/11 01:09:39;;;;;;;28.20;7.57;;;;;;;;;;4179317;28;20047;-56
2023/03/11 01:11:59;;;;;;;30.92;8.43;;;;;;;;;;4176876;28;20049;-57
2023/03/11 01:14:20;;;;;;;26.08;8.27;;;;;;;;;;4176237;28;20366;-57
2023/03/11 01:16:40;;;;;;;29.60;8.52;;;;;;;;;;4175446;28;20044;-57
2023/03/11 01:19:00;;;;;;;31.00;9.23;;;;;;;;;;4180713;28;20086;-57
2023/03/11 01:21:20;;;;;;;31.50;7.97;;;;;;;;;;4178484;28;20263;-57
2023/03/11 01:23:42;;;;;;;38.03;10.60;;;;;;;;;;4174941;28;20045;-57
2023/03/11 01:26:03;;;;;;;42.73;12.03;;;;;;;;;;4169650;28;20051;-56
2023/03/11 01:28:23;;;;;;;28.20;7.13;;;;;;;;;;4169656;28;20049;-57
2023/03/11 01:30:43;;;;;;;21.23;8.38;;;;;;;;;;4176225;28;20052;-56
2023/03/11 01:33:05;;;;;;;23.73;7.90;;;;;;;;;;4176219;28;20410;-56
2023/03/11 01:35:26;;;;;;;30.95;8.80;;;;;;;;;;4174125;28;20087;-57
2023/03/11 01:37:47;;;;;;;35.10;8.68;;;;;;;;;;4179353;28;20088;-57
2023/03/11 01:40:08;;;;;;;33.83;7.97;;;;;;;;;;4179656;28;20099;-57
2023/03/11 01:42:28;;;;;;;25.35;6.72;;;;;;;;;;4177919;28;20083;-57
2023/03/11 01:44:48;;;;;;;26.17;6.97;;;;;;;;;;4180112;28;20084;-57
2023/03/11 01:47:11;;;;;;;29.65;8.05;;;;;;;;;;4177871;28;20044;-56
2023/03/11 01:49:32;;;;;;;27.10;7.22;;;;;;;;;;4182072;28;20048;-57
2023/03/11 01:51:54;;;;;;;25.17;7.22;;;;;;;;;;4179817;28;20451;-57
2023/03/11 01:54:35;;;;;;;26.58;6.97;;;;;;;;;;4178948;28;20044;-56
2023/03/11 01:56:55;;;;;;;23.70;6.97;;;;;;;;;;4176455;28;20240;-57
2023/03/11 01:59:19;;;;;;;20.73;7.70;;;;;;;;;;4171895;28;20268;-57
2023/03/11 02:01:43;;;;;;;25.90;7.63;;;;;;;;;;4176831;28;20275;-59
2023/03/11 02:04:03;;;;;;;28.15;8.00;;;;;;;;;;4178669;28;20060;-57
2023/03/11 02:06:24;;;;;;;23.63;6.53;;;;;;;;;;4174833;28;20084;-57
2023/03/11 02:08:44;;;;;;;31.70;6.40;;;;;;;;;;4173451;28;20048;-56
2023/03/11 02:11:07;;;;;;;29.00;8.77;;;;;;;;;;4177355;28;20099;-57
2023/03/11 02:13:28;;;;;;;33.15;7.50;;;;;;;;;;4176411;28;20263;-56
2023/03/11 02:15:48;;;;;;;28.33;7.80;;;;;;;;;;4177127;28;20047;-57
2023/03/11 02:18:09;;;;;;;23.23;7.35;;;;;;;;;;4179713;28;20106;-56
2023/03/11 02:20:42;;;;;;;34.42;7.90;;;;;;;;;;4179257;28;20056;-57
2023/03/11 02:23:03;;;;;;;24.02;8.00;;;;;;;;;;4176018;28;20248;-57
2023/03/11 02:25:42;;;;;;;34.13;8.32;;;;;;;;;;4173504;28;20260;-57
2023/03/11 02:28:05;;;;;;;31.40;6.60;;;;;;;;;;4172639;28;20063;-57
2023/03/11 02:30:26;;;;;;;25.90;7.68;;;;;;;;;;4172972;28;20115;-58
2023/03/11 02:32:49;;;;;;;25.48;7.50;;;;;;;;;;4176059;28;20052;-56
2023/03/11 02:35:09;;;;;;;26.88;8.20;;;;;;;;;;4177466;28;20043;-56
2023/03/11 02:37:30;;;;;;;22.13;7.35;;;;;;;;;;4175754;28;20040;-56
2023/03/11 02:39:51;;;;;;;20.52;6.40;;;;;;;;;;4170177;28;20048;-57
2023/03/11 02:42:12;;;;;;;16.65;6.85;;;;;;;;;;4174961;28;20044;-56
2023/03/11 02:44:32;;;;;;;33.42;7.78;;;;;;;;;;4174716;28;20068;-57
2023/03/11 02:46:52;;;;;;;20.95;7.38;;;;;;;;;;4171140;28;20366;-57
2023/03/11 02:49:14;;;;;;;27.80;8.20;;;;;;;;;;4167591;28;20044;-57
2023/03/11 02:51:34;;;;;;;24.58;7.47;;;;;;;;;;4184570;28;20108;-56
2023/03/11 02:53:57;;;;;;;28.05;8.15;;;;;;;;;;4177518;28;20106;-57
2023/03/11 02:56:17;;;;;;;23.77;6.88;;;;;;;;;;4173706;28;20090;-57
2023/03/11 02:58:38;;;;;;;23.92;6.40;;;;;;;;;;4168124;28;20040;-56
2023/03/11 03:00:58;;;;;;;28.20;7.15;;;;;;;;;;4177221;28;20102;-56
2023/03/11 03:03:18;;;;;;;29.63;8.75;;;;;;;;;;4176818;28;20412;-57
2023/03/11 03:05:38;;;;;;;26.52;8.18;;;;;;;;;;4177053;28;20084;-57
2023/03/11 03:07:59;;;;;;;23.40;6.30;;;;;;;;;;4172462;28;20140;-57
2023/03/11 03:10:20;;;;;;;40.30;9.38;;;;;;;;;;4174732;28;20047;-57
2023/03/11 03:12:40;;;;;;;26.27;7.95;;;;;;;;;;4173951;28;20044;-58
2023/03/11 03:15:00;;;;;;;29.92;7.15;;;;;;;;;;4174113;28;20122;-57
2023/03/11 03:17:20;;;;;;;27.98;6.95;;;;;;;;;;4172091;28;20048;-57
2023/03/11 03:19:40;;;;;;;31.08;8.20;;;;;;;;;;4177377;28;20044;-57
2023/03/11 03:22:00;;;;;;;27.02;7.40;;;;;;;;;;4179784;28;20244;-57
2023/03/11 03:24:20;;;;;;;16.40;6.82;;;;;;;;;;4177030;28;20040;-57
2023/03/11 03:26:40;;;;;;;29.38;7.35;;;;;;;;;;4178120;28;20080;-57
2023/03/11 03:29:01;;;;;;;35.60;8.65;;;;;;;;;;4178813;28;20045;-57
2023/03/11 03:31:21;;;;;;;19.48;6.57;;;;;;;;;;4175177;28;20044;-56
2023/03/11 03:33:41;;;;;;;31.10;6.60;;;;;;;;;;4179998;28;20055;-57
2023/03/11 03:36:06;;;;;;;21.52;7.15;;;;;;;;;;4175577;28;20056;-57
2023/03/11 03:38:26;;;;;;;30.20;7.68;;;;;;;;;;4169638;28;20052;-57
2023/03/11 03:40:46;;;;;;;20.20;7.30;;;;;;;;;;4175943;28;20283;-57
2023/03/11 03:43:06;;;;;;;29.60;7.75;;;;;;;;;;4174406;28;20104;-57
2023/03/11 03:45:27;;;;;;;34.20;9.27;;;;;;;;;;4175139;28;20233;-57
2023/03/11 03:47:47;;;;;;;27.38;7.30;;;;;;;;;;4173238;28;20082;-57
2023/03/11 03:50:08;;;;;;;33.97;9.25;;;;;;;;;;4176105;28;20048;-56
2023/03/11 03:52:29;;;;;;;20.85;6.32;;;;;;;;;;4180808;28;20083;-56
2023/03/11 03:54:49;;;;;;;34.85;8.50;;;;;;;;;;4172372;28;20083;-57
2023/03/11 03:57:09;;;;;;;22.08;6.57;;;;;;;;;;4174050;28;20055;-57
2023/03/11 03:59:29;;;;;;;25.55;7.07;;;;;;;;;;4177319;28;20120;-57
2023/03/11 04:01:49;;;;;;;26.73;7.03;;;;;;;;;;4171088;28;20044;-57
2023/03/11 04:04:09;;;;;;;26.27;8.05;;;;;;;;;;4176266;28;20521;-57
2023/03/11 04:06:29;;;;;;;25.23;7.05;;;;;;;;;;4175854;28;20044;-57
2023/03/11 04:08:53;;;;;;;29.30;7.75;;;;;;;;;;4174638;28;20036;-57
2023/03/11 04:11:14;;;;;;;27.45;7.53;;;;;;;;;;4170971;28;20065;-57
2023/03/11 04:13:34;;;;;;;19.30;5.57;;;;;;;;;;4177475;28;20049;-58
2023/03/11 04:15:54;;;;;;;27.00;6.85;;;;;;;;;;4177362;28;20048;-57
2023/03/11 04:18:14;;;;;;;21.08;7.55;;;;;;;;;;4170291;28;20403;-57
2023/03/11 04:20:35;;;;;;;17.05;5.68;;;;;;;;;;4179226;28;20064;-57
2023/03/11 04:22:55;;;;;;;30.90;7.60;;;;;;;;;;4176168;28;20045;-57
2023/03/11 04:25:15;;;;;;;28.20;7.80;;;;;;;;;;4169841;28;20331;-57
2023/03/11 04:27:37;;;;;;;26.20;6.88;;;;;;;;;;4160039;28;20432;-57
2023/03/11 04:29:57;;;;;;;25.50;6.70;;;;;;;;;;4169060;28;20044;-56
2023/03/11 04:32:17;;;;;;;17.85;5.63;;;;;;;;;;4169086;28;20367;-56
2023/03/11 04:34:37;;;;;;;15.32;6.53;;;;;;;;;;4168343;28;20045;-57
2023/03/11 04:36:57;;;;;;;22.27;6.60;;;;;;;;;;4164629;28;20057;-57
2023/03/11 04:39:17;;;;;;;23.13;6.28;;;;;;;;;;4173306;28;20048;-57
2023/03/11 04:41:37;;;;;;;25.80;7.15;;;;;;;;;;4174958;28;20044;-57
2023/03/11 04:44:01;;;;;;;25.13;6.35;;;;;;;;;;4170847;28;20049;-57
2023/03/11 04:46:21;;;;;;;29.13;7.22;;;;;;;;;;4179876;28;20382;-57
2023/03/11 04:48:42;;;;;;;20.92;7.13;;;;;;;;;;4179403;28;20223;-58
2023/03/11 04:51:02;;;;;;;17.95;5.82;;;;;;;;;;4184980;28;20052;-57
2023/03/11 04:53:23;;;;;;;27.38;8.55;;;;;;;;;;4176343;28;20086;-57
2023/03/11 04:55:43;;;;;;;27.02;8.52;;;;;;;;;;4180824;28;20051;-58
2023/03/11 04:58:04;;;;;;;21.25;6.45;;;;;;;;;;4183401;28;20052;-58
2023/03/11 05:00:24;;;;;;;22.65;6.70;;;;;;;;;;4179201;28;20084;-57
2023/03/11 05:02:44;;;;;;;18.23;6.25;;;;;;;;;;4175952;28;20100;-57
2023/03/11 05:05:04;;;;;;;21.20;6.47;;;;;;;;;;4183482;28;20048;-56
2023/03/11 05:07:24;;;;;;;19.45;6.53;;;;;;;;;;4184172;28;20362;-57
2023/03/11 05:09:45;;;;;;;21.00;5.75;;;;;;;;;;4171676;28;20037;-57
2023/03/11 05:12:05;;;;;;;18.85;6.55;;;;;;;;;;4176467;28;20052;-57
2023/03/11 05:14:25;;;;;;;18.05;6.32;;;;;;;;;;4174183;28;20061;-57
2023/03/11 05:16:46;;;;;;;21.08;7.25;;;;;;;;;;4179184;28;20048;-57
2023/03/11 05:19:29;;;;;;;20.70;6.97;;;;;;;;;;4173391;28;20041;-57
2023/03/11 05:21:46;;;;;;;21.58;5.65;;;;;;;;;;4182976;28;20117;-56
2023/03/11 05:24:06;;;;;;;23.35;6.65;;;;;;;;;;4173666;28;20104;-57
2023/03/11 05:26:26;;;;;;;16.38;7.07;;;;;;;;;;4173212;28;20080;-57
2023/03/11 05:28:46;;;;;;;10.68;4.97;;;;;;;;;;4168839;28;20052;-56
2023/03/11 05:31:10;;;;;;;10.90;5.25;;;;;;;;;;4174984;28;20044;-57
2023/03/11 05:33:34;;;;;;;20.50;6.32;;;;;;;;;;4174818;28;20041;-58
2023/03/11 05:35:54;;;;;;;17.25;6.43;;;;;;;;;;4176379;28;20106;-58
2023/03/11 05:38:14;;;;;;;23.45;6.55;;;;;;;;;;4173628;28;20090;-57
2023/03/11 05:40:35;;;;;;;16.45;6.22;;;;;;;;;;4176374;28;20108;-57
2023/03/11 05:42:55;;;;;;;15.85;5.45;;;;;;;;;;4181661;28;20041;-57
2023/03/11 05:45:15;;;;;;;16.52;5.50;;;;;;;;;;4179902;28;20048;-57
2023/03/11 05:47:35;;;;;;;14.88;4.63;;;;;;;;;;4175813;28;20049;-57
2023/03/11 05:49:55;;;;;;;9.55;5.00;;;;;;;;;;4175664;28;20084;-57
2023/03/11 05:52:15;;;;;;;13.25;4.38;;;;;;;;;;4183927;28;20102;-57
2023/03/11 05:54:36;;;;;;;9.90;4.53;;;;;;;;;;4179760;28;20060;-57
2023/03/11 05:56:56;;;;;;;13.75;6.22;;;;;;;;;;4178514;28;20236;-57
2023/03/11 05:59:16;;;;;;;11.25;6.22;;;;;;;;;;4171686;28;20232;-57
2023/03/11 06:01:37;;;;;;;13.80;6.13;;;;;;;;;;4172988;28;20056;-57
2023/03/11 06:03:57;;;;;;;21.08;5.82;;;;;;;;;;4173690;28;20378;-57
2023/03/11 06:06:17;;;;;;;13.05;5.82;;;;;;;;;;4179131;28;20067;-57
2023/03/11 06:08:37;;;;;;;16.10;5.85;;;;;;;;;;4177389;28;20047;-57
2023/03/11 06:11:05;;;;;;;9.02;3.97;;;;;;;;;;4178032;28;20047;-56
2023/03/11 06:13:26;;;;;;;14.95;6.80;;;;;;;;;;4178704;28;20083;-57
2023/03/11 06:15:46;;;;;;;14.98;6.28;;;;;;;;;;4179675;28;20048;-57
2023/03/11 06:18:06;;;;;;;10.90;3.63;;;;;;;;;;4177732;28;20064;-57
2023/03/11 06:20:26;;;;;;;7.93;5.57;;;;;;;;;;4178477;28;20084;-57
2023/03/11 06:22:50;;;;;;;19.95;5.05;;;;;;;;;;4179983;28;20056;-56
2023/03/11 06:25:11;;;;;;;11.05;4.90;;;;;;;;;;4176168;28;20087;-57
2023/03/11 06:27:32;;;;;;;9.43;4.85;;;;;;;;;;4174353;28;20059;-57
2023/03/11 06:29:53;;;;;;;7.55;4.78;;;;;;;;;;4172355;28;20117;-57
2023/03/11 06:32:13;;;;;;;13.55;7.07;;;;;;;;;;4174910;28;20048;-57
2023/03/11 06:34:34;;;;;;;17.67;7.13;;;;;;;;;;4174001;28;20298;-57
2023/03/11 06:36:54;;;;;;;10.30;6.32;;;;;;;;;;4177973;28;20109;-57
2023/03/11 06:39:14;;;;;;;28.35;8.85;;;;;;;;;;4175863;28;20048;-57
2023/03/11 06:41:35;;;;;;;6.25;5.68;;;;;;;;;;4179578;28;20401;-57
2023/03/11 06:43:58;;;;;;;25.00;6.05;;;;;;;;;;4174500;28;20056;-57
2023/03/11 06:46:20;;;;;;;7.90;6.07;;;;;;;;;;4173841;28;20279;-57
2023/03/11 06:48:41;;;;;;;18.27;6.00;;;;;;;;;;4176822;28;20079;-56
2023/03/11 06:51:01;;;;;;;10.55;4.53;;;;;;;;;;4174558;28;20275;-57
2023/03/11 06:53:22;;;;;;;16.88;5.82;;;;;;;;;;4171430;28;20233;-57
2023/03/11 06:55:42;;;;;;;5.65;4.13;;;;;;;;;;4181078;28;20052;-57
2023/03/11 06:58:03;;;;;;;13.40;5.47;;;;;;;;;;4177754;28;20248;-57
2023/03/11 07:00:23;;;;;;;14.90;4.80;;;;;;;;;;4172550;28;20142;-58
2023/03/11 07:02:43;;;;;;;15.68;5.88;;;;;;;;;;4170974;28;20096;-57
2023/03/11 07:05:04;;;;;;;13.20;4.75;;;;;;;;;;4177091;28;20371;-57
2023/03/11 07:07:24;;;;;;;14.68;5.00;;;;;;;;;;4177781;28;20120;-57
2023/03/11 07:09:44;;;;;;;16.27;5.28;;;;;;;;;;4174680;28;20036;-57
2023/03/11 07:12:05;;;;;;;15.10;6.18;;;;;;;;;;4175739;28;20091;-58
2023/03/11 07:14:26;;;;;;;9.50;4.32;;;;;;;;;;4178716;28;20079;-57
2023/03/11 07:16:46;;;;;;;13.77;5.75;;;;;;;;;;4178112;28;20079;-58
2023/03/11 07:19:06;;;;;;;17.23;5.45;;;;;;;;;;4177596;28;20057;-58
2023/03/11 07:21:27;;;;;;;12.95;5.57;;;;;;;;;;4176378;28;20053;-57
2023/03/11 07:23:48;;;;;;;7.32;5.25;;;;;;;;;;4177277;28;20044;-58
2023/03/11 07:26:09;;;;;;;12.05;4.40;;;;;;;;;;4173280;28;20103;-57
2023/03/11 07:28:30;;;;;;;9.82;4.40;;;;;;;;;;4169396;28;20055;-57
2023/03/11 07:30:50;;;;;;;9.98;5.20;;;;;;;;;;4179389;28;20056;-57
2023/03/11 07:33:10;;;;;;;14.13;5.43;;;;;;;;;;4171903;28;20399;-57
2023/03/11 07:35:30;;;;;;;18.90;6.28;;;;;;;;;;4173604;28;20105;-57
2023/03/11 07:37:51;;;;;;;13.57;6.57;;;;;;;;;;4181950;28;20045;-57
2023/03/11 07:40:12;;;;;;;12.40;5.85;;;;;;;;;;4167345;28;20045;-58
2023/03/11 07:42:33;;;;;;;14.23;5.55;;;;;;;;;;4176670;28;20143;-57
2023/03/11 07:44:54;;;;;;;12.50;5.00;;;;;;;;;;4181291;28;20087;-57
2023/03/11 07:47:14;;;;;;;16.38;5.63;;;;;;;;;;4174892;28;20055;-59
2023/03/11 07:49:34;;;;;;;13.48;5.18;;;;;;;;;;4173137;28;20086;-59
2023/03/11 07:51:55;;;;;;;9.73;4.40;;;;;;;;;;4178011;28;20125;-57
2023/03/11 07:54:15;;;;;;;10.45;5.55;;;;;;;;;;4181609;28;20072;-57
2023/03/11 07:56:35;;;;;;;6.72;3.85;;;;;;;;;;4168777;28;20052;-57
2023/03/11 07:58:55;;;;;;;9.15;4.28;;;;;;;;;;4177076;28;20076;-56
2023/03/11 08:01:17;;;;;;;14.55;6.10;;;;;;;;;;4179727;28;20056;-58
2023/03/11 08:03:38;;;;;;;14.25;5.28;;;;;;;;;;4176689;28;20412;-59
2023/03/11 08:05:58;;;;;;;13.60;6.70;;;;;;;;;;4172341;28;20109;-57
2023/03/11 08:08:18;;;;;;;16.80;7.68;;;;;;;;;;4178455;28;20045;-57
2023/03/11 08:10:39;;;;;;;10.07;4.00;;;;;;;;;;4177042;28;20057;-57
2023/03/11 08:12:59;;;;;;;17.25;4.63;;;;;;;;;;4173266;28;20098;-58
2023/03/11 08:15:19;;;;;;;10.15;3.35;;;;;;;;;;4175894;28;20114;-58
2023/03/11 08:17:39;;;;;;;33.15;4.55;;;;;;;;;;4183381;28;20044;-58
2023/03/11 08:20:00;;;;;;;13.90;3.10;;;;;;;;;;4179013;28;20048;-57
2023/03/11 08:22:20;;;;;;;10.00;3.05;;;;;;;;;;4174411;28;20446;-57
2023/03/11 08:24:41;;;;;;;8.88;3.78;;;;;;;;;;4178671;28;20056;-57
2023/03/11 08:27:01;;;;;;;6.00;3.17;;;;;;;;;;4175095;28;20053;-57
2023/03/11 08:29:22;;;;;;;20.63;4.07;;;;;;;;;;4168797;28;20236;-58
2023/03/11 08:31:42;;;;;;;3.63;2.38;;;;;;;;;;4169134;28;20109;-57
2023/03/11 08:34:07;;;;;;;12.27;2.72;;;;;;;;;;4175300;28;20041;-57
2023/03/11 08:36:28;;;;;;;5.75;2.78;;;;;;;;;;4176801;28;20276;-58
2023/03/11 08:38:48;;;;;;;3.33;2.40;;;;;;;;;;4169028;28;20072;-57
2023/03/11 08:41:08;;;;;;;12.20;2.75;;;;;;;;;;4184450;28;20278;-58
2023/03/11 08:43:29;;;;;;;7.57;2.63;;;;;;;;;;4176787;28;20049;-58
2023/03/11 08:45:49;;;;;;;7.50;3.00;;;;;;;;;;4175055;28;20105;-57
2023/03/11 08:48:10;;;;;;;4.32;2.35;;;;;;;;;;4174108;28;20044;-58
2023/03/11 08:50:31;;;;;;;6.72;2.67;;;;;;;;;;4172187;28;20053;-57
2023/03/11 08:52:55;;;;;;;7.22;3.35;;;;;;;;;;4183772;28;20072;-58
2023/03/11 08:55:17;;;;;;;6.35;3.72;;;;;;;;;;4172775;28;20044;-57
2023/03/11 08:57:37;;;;;;;4.65;1.92;;;;;;;;;;4173052;28;20053;-57
2023/03/11 08:59:57;;;;;;;3.70;3.30;;;;;;;;;;4172731;28;20055;-57
2023/03/11 09:02:18;;;;;;;7.53;4.35;;;;;;;;;;4180110;28;20254;-57
2023/03/11 09:04:38;;;;;;;4.80;2.38;;;;;;;;;;4177932;28;20048;-57
2023/03/11 09:06:58;;;;;;;3.53;2.70;;;;;;;;;;4179206;28;20237;-57
2023/03/11 09:09:19;;;;;;;7.93;3.33;;;;;;;;;;4182234;28;20064;-57
2023/03/11 09:11:40;;;;;;;8.35;2.38;;;;;;;;;;4177805;28;20108;-58
2023/03/11 09:14:00;;;;;;;3.25;2.03;;;;;;;;;;4177753;28;20304;-58
2023/03/11 09:16:22;;;;;;;4.03;2.00;;;;;;;;;;4178324;28;20318;-57
2023/03/11 09:18:43;;;;;;;3.72;2.17;;;;;;;;;;4176281;28;20056;-57
2023/03/11 09:21:03;;;;;;;8.13;3.72;;;;;;;;;;4173894;28;20052;-58
2023/03/11 09:23:23;;;;;;;5.82;2.90;;;;;;;;;;4177625;28;20065;-57
2023/03/11 09:25:44;;;;;;;7.75;2.40;;;;;;;;;;4178881;28;20071;-58
2023/03/11 09:28:04;;;;;;;6.78;2.70;;;;;;;;;;4174181;28;20049;-57
2023/03/11 09:30:24;;;;;;;6.55;3.05;;;;;;;;;;4170568;28;20355;-57
2023/03/11 09:32:45;;;;;;;4.30;2.28;;;;;;;;;;4173545;28;20084;-58
2023/03/11 09:35:06;;;;;;;11.95;4.70;;;;;;;;;;4176460;28;20045;-58
2023/03/11 09:37:28;;;;;;;5.13;4.50;;;;;;;;;;4178292;28;20088;-58
2023/03/11 09:39:48;;;;;;;4.05;2.40;;;;;;;;;;4172808;28;20049;-58
2023/03/11 09:42:22;;;;;;;2.70;2.60;;;;;;;;;;4175921;28;20102;-57
2023/03/11 09:44:54;;;;;;;3.70;3.40;;;;;;;;;;4173848;28;20040;-57
2023/03/11 09:47:17;;;;;;;5.70;2.78;;;;;;;;;;4176715;28;20048;-58
2023/03/11 09:49:46;;;;;;;5.38;2.80;;;;;;;;;;4174930;28;20052;-58
2023/03/11 09:52:30;;;;;;;6.13;1.92;;;;;;;;;;4176560;28;20099;-58
2023/03/11 09:54:54;;;;;;;5.38;2.65;;;;;;;;;;4182284;28;20044;-58
2023/03/11 09:57:20;;;;;;;6.95;2.47;;;;;;;;;;4181755;28;20363;-58
2023/03/11 09:59:42;;;;;;;8.65;2.95;;;;;;;;;;4178032;28;20052;-58
2023/03/11 10:02:04;;;;;;;4.93;2.65;;;;;;;;;;4176882;28;20064;-58
2023/03/11 10:04:28;;;;;;;10.05;3.42;;;;;;;;;;4188099;28;20099;-58
2023/03/11 10:06:48;;;;;;;9.95;3.38;;;;;;;;;;4171800;28;20167;-58
2023/03/11 10:09:12;;;;;;;5.47;2.38;;;;;;;;;;4181359;28;20090;-58
2023/03/11 10:11:56;;;;;;;4.68;4.18;;;;;;;;;;4179326;28;20060;-58
2023/03/11 10:14:32;;;;;;;5.65;3.05;;;;;;;;;;4171119;28;20040;-58
2023/03/11 10:16:59;;;;;;;6.57;2.42;;;;;;;;;;4178303;28;20075;-58
2023/03/11 10:19:28;;;;;;;4.85;1.70;;;;;;;;;;4182376;28;20086;-58
2023/03/11 10:22:04;;;;;;;3.58;1.73;;;;;;;;;;4178791;28;20110;-58
2023/03/11 10:24:39;;;;;;;4.45;3.47;;;;;;;;;;4176132;28;20100;-58
2023/03/11 10:27:02;;;;;;;5.88;2.47;;;;;;;;;;4173650;28;20082;-57
2023/03/11 10:29:28;;;;;;;3.20;2.00;;;;;;;;;;4173169;28;20045;-58
2023/03/11 10:31:48;;;;;;;7.20;2.15;;;;;;;;;;4188966;28;20090;-58
2023/03/11 10:34:14;;;;;;;3.08;2.03;;;;;;;;;;4176728;28;20111;-58
2023/03/11 10:36:45;;;;;;;4.18;2.45;;;;;;;;;;4174803;28;20083;-58
2023/03/11 10:39:09;;;;;;;2.80;1.63;;;;;;;;;;4177153;28;20366;-58
2023/03/11 10:41:34;;;;;;;5.10;2.90;;;;;;;;;;4174394;28;20272;-58
2023/03/11 10:43:59;;;;;;;5.28;2.83;;;;;;;;;;4178721;28;20048;-58
2023/03/11 10:46:22;;;;;;;2.75;1.60;;;;;;;;;;4176520;28;20049;-58
2023/03/11 10:48:42;;;;;;;;;;;;;;;;;;4174376;28;20127;-61
2023/03/11 10:51:16;;;;;;;3.72;1.67;;;;;;;;;;4170152;28;19987;-59
2023/03/11 10:53:47;;;;;;;6.05;1.50;;;;;;;;;;4175100;28;20044;-59
2023/03/11 10:56:23;;;;;;;7.25;3.08;;;;;;;;;;4174812;28;20287;-59
2023/03/11 10:58:48;;;;;;;4.00;2.20;;;;;;;;;;4174116;28;20366;-58
2023/03/11 11:01:17;;;;;;;5.07;1.67;;;;;;;;;;4176962;28;20083;-59
2023/03/11 11:03:41;;;;;;;4.38;2.30;;;;;;;;;;4173949;28;20095;-58
2023/03/11 11:06:05;;;;;;;2.63;1.80;;;;;;;;;;4174296;28;20061;-59
2023/03/11 11:08:25;;;;;;;3.78;1.92;;;;;;;;;;4213507;22;20358;-90
2023/03/11 11:10:50;;;;;;;4.68;2.33;;;;;;;;;;4206618;28;20051;-90
2023/03/11 11:13:13;;;;;;;8.77;3.88;;;;;;;;;;4205929;28;20052;-90
2023/03/11 11:15:40;;;;;;;5.03;1.80;;;;;;;;;;4208119;28;20051;-90
2023/03/11 11:18:05;;;;;;;5.00;2.20;;;;;;;;;;4206365;28;20050;-90
2023/03/11 11:20:26;;;;;;;11.35;4.18;;;;;;;;;;4208234;28;20067;-89
2023/03/11 11:22:49;;;;;;;9.73;5.03;;;;;;;;;;4209074;28;20139;-90
2023/03/11 11:25:24;;;;;;;10.15;4.80;;;;;;;;;;4204360;28;20086;-90
2023/03/11 11:27:54;;;;;;;14.07;5.78;;;;;;;;;;4204845;28;20043;-92
2023/03/11 11:30:16;;;;;;;5.63;3.53;;;;;;;;;;4207490;28;20383;-91
2023/03/11 11:32:37;;;;;;;10.52;5.93;;;;;;;;;;4190054;28;20043;-91
2023/03/11 11:34:59;;;;;;;6.35;4.22;;;;;;;;;;4191346;28;20095;-91
2023/03/11 11:37:20;;;;;;;3.45;3.15;;;;;;;;;;4192574;28;20268;-91
2023/03/11 11:39:50;;;;;;;13.18;5.00;;;;;;;;;;4206798;28;20083;-91
2023/03/11 11:42:13;;;;;;;6.07;3.75;;;;;;;;;;4206304;28;20074;-91
2023/03/11 11:44:34;;;;;;;8.23;3.47;;;;;;;;;;4188728;28;20064;-86
2023/03/11 11:46:56;;;;;;;9.70;5.25;;;;;;;;;;4190635;28;20236;-84
2023/03/11 11:49:18;;;;;;;8.05;4.00;;;;;;;;;;4190704;28;20375;-84
2023/03/11 11:51:42;;;;;;;17.30;5.47;;;;;;;;;;4190258;28;20079;-84
2023/03/11 11:54:27;;;;;;;8.93;4.70;;;;;;;;;;4202774;28;20062;-85
2023/03/11 11:56:47;;;;;;;10.82;3.90;;;;;;;;;;4188383;28;20051;-85
2023/03/11 11:59:26;;;;;;;11.77;4.63;;;;;;;;;;4189103;28;20266;-84
2023/03/11 12:01:59;;;;;;;11.50;3.67;;;;;;;;;;4188912;28;20072;-84
2023/03/11 12:04:22;;;;;;;7.78;4.25;;;;;;;;;;4188167;28;20048;-84
2023/03/11 12:07:01;;;;;;;7.00;3.88;;;;;;;;;;4190182;28;20363;-84
2023/03/11 12:09:40;;;;;;;4.70;3.63;;;;;;;;;;4189372;28;20079;-85
2023/03/11 12:12:07;;;;;;;6.07;3.22;;;;;;;;;;4187953;28;20091;-85
2023/03/11 12:14:31;;;;;;;7.90;3.85;;;;;;;;;;4190610;28;20082;-84
2023/03/11 12:17:01;;;;;;;6.40;3.78;;;;;;;;;;4190810;28;20078;-84
2023/03/11 12:19:43;;;;;;;7.30;4.40;;;;;;;;;;4189925;28;20371;-85
2023/03/11 12:22:18;;;;;;;9.60;3.95;;;;;;;;;;4202577;28;20062;-85
2023/03/11 12:24:47;;;;;;;7.50;3.97;;;;;;;;;;4189734;28;20438;-85
2023/03/11 12:27:28;;;;;;;5.53;3.60;;;;;;;;;;4190448;28;20044;-85
2023/03/11 12:29:52;;;;;;;20.33;12.27;;;;;;;;;;4203501;28;20060;-85
2023/03/11 12:32:22;;;;;;;15.07;9.52;;;;;;;;;;4204518;28;20098;-85
2023/03/11 12:34:42;;;;;;;8.85;4.53;;;;;;;;;;4190089;28;20064;-85
2023/03/11 12:37:13;;;;;;;3.60;2.83;;;;;;;;;;4188851;28;20088;-84
2023/03/11 12:39:33;;;;;;;8.10;4.35;;;;;;;;;;4190892;28;20051;-85
2023/03/11 12:42:12;;;;;;;10.93;3.53;;;;;;;;;;4204298;28;20063;-85
2023/03/11 12:44:33;;;;;;;5.53;3.45;;;;;;;;;;4188326;28;20083;-85
2023/03/11 12:46:58;;;;;;;8.02;4.25;;;;;;;;;;4189291;28;20043;-84
2023/03/11 12:49:23;;;;;;;8.45;7.60;;;;;;;;;;4189535;28;20048;-84
2023/03/11 12:52:00;;;;;;;6.50;4.47;;;;;;;;;;4188558;28;20110;-84
2023/03/11 12:54:31;;;;;;;6.00;3.38;;;;;;;;;;4188321;28;20240;-84
2023/03/11 12:56:54;;;;;;;6.95;4.10;;;;;;;;;;4189431;28;20063;-84
2023/03/11 12:59:20;;;;;;;6.88;5.07;;;;;;;;;;4204475;28;20047;-84
2023/03/11 13:01:50;;;;;;;4.60;3.58;;;;;;;;;;4194256;28;20268;-84
2023/03/11 13:04:43;;;;;;;5.05;2.47;;;;;;;;;;4189068;28;20056;-84
2023/03/11 13:07:03;;;;;;;4.80;3.17;;;;;;;;;;4199165;28;20090;-84
2023/03/11 13:09:23;;;;;;;6.40;2.70;;;;;;;;;;4194890;28;20178;-84
2023/03/11 13:11:43;;;;;;;7.72;3.40;;;;;;;;;;4211443;28;20043;-84
2023/03/11 13:14:16;;;;;;;8.82;4.20;;;;;;;;;;4189598;28;20247;-84
2023/03/11 13:16:37;;;;;;;9.77;4.47;;;;;;;;;;4194135;28;20047;-84
2023/03/11 13:19:17;;;;;;;6.80;3.28;;;;;;;;;;4189470;28;20087;-84
2023/03/11 13:21:40;;;;;;;13.52;6.50;;;;;;;;;;4189039;28;20086;-84
2023/03/11 13:24:18;;;;;;;7.28;3.65;;;;;;;;;;4190405;28;20052;-84
2023/03/11 13:26:42;;;;;;;2.65;2.45;;;;;;;;;;4190120;28;20106;-83
2023/03/11 13:29:06;;;;;;;4.72;3.67;;;;;;;;;;4189491;28;20232;-84
2023/03/11 13:31:40;;;;;;;4.15;2.08;;;;;;;;;;4188336;28;20083;-84
2023/03/11 13:34:10;;;;;;;4.57;2.63;;;;;;;;;;4192858;28;20075;-84
2023/03/11 13:36:42;;;;;;;5.43;2.08;;;;;;;;;;4189952;28;20056;-83
2023/03/11 13:39:11;;;;;;;4.25;2.75;;;;;;;;;;4191080;28;20410;-84
2023/03/11 13:41:34;;;;;;;4.22;3.30;;;;;;;;;;4205155;28;20062;-84
2023/03/11 13:43:57;;;;;;;5.60;3.50;;;;;;;;;;4204412;28;20270;-84
2023/03/11 13:46:26;;;;;;;5.75;2.83;;;;;;;;;;4192122;28;20063;-84
2023/03/11 13:48:48;;;;;;;8.43;2.90;;;;;;;;;;4205792;28;20099;-84
2023/03/11 13:51:44;;;;;;;8.43;4.80;;;;;;;;;;4189919;28;20048;-84
2023/03/11 13:54:18;;;;;;;3.53;2.92;;;;;;;;;;4206965;28;20151;-84
2023/03/11 13:56:45;;;;;;;3.70;2.30;;;;;;;;;;4193143;28;20338;-84
2023/03/11 13:59:16;;;;;;;7.78;5.07;;;;;;;;;;4205863;28;20090;-84
2023/03/11 14:01:36;;;;;;;4.47;2.30;;;;;;;;;;4208323;28;20287;-84
2023/03/11 14:03:57;;;;;;;5.68;2.70;;;;;;;;;;4191230;28;20052;-84
2023/03/11 14:06:18;;;;;;;8.43;4.53;;;;;;;;;;4206716;28;20131;-84
2023/03/11 14:08:40;;;;;;;5.25;3.58;;;;;;;;;;4194884;28;20091;-84
2023/03/11 14:11:00;;;;;;;5.55;3.05;;;;;;;;;;4194313;28;20135;-84